sensor_id;sensor_type;location;lat;lon;timestamp;pressure;altitude;pressure_sealevel;temperature;humidity
35778;BME280;21899;42.662;23.316;2023-07-30T00:01:12;94269.09;;;21.33;67.50
35778;BME280;21899;42.662;23.316;2023-07-30T00:03:37;94272.56;;;21.33;68.11
35778;BME280;21899;42.662;23.316;2023-07-30T00:06:02;94272.88;;;21.35;67.67
35778;BME280;21899;42.662;23.316;2023-07-30T00:08:28;94260.75;;;21.27;68.06
35778;BME280;21899;42.662;23.316;2023-07-30T00:10:56;94261.22;;;21.26;68.21
35778;BME280;21899;42.662;23.316;2023-07-30T00:13:21;94269.06;;;21.24;68.35
35778;BME280;21899;42.662;23.316;2023-07-30T00:15:47;94261.22;;;21.17;69.00
35778;BME280;21899;42.662;23.316;2023-07-30T00:18:13;94258.38;;;21.20;69.11
35778;BME280;21899;42.662;23.316;2023-07-30T00:20:39;94259.44;;;21.14;69.20
35778;BME280;21899;42.662;23.316;2023-07-30T00:23:04;94265.75;;;21.11;69.03
35778;BME280;21899;42.662;23.316;2023-07-30T00:25:30;94272.28;;;21.13;69.46
35778;BME280;21899;42.662;23.316;2023-07-30T00:27:55;94260.03;;;21.00;69.76
35778;BME280;21899;42.662;23.316;2023-07-30T00:30:21;94260.91;;;21.06;69.88
35778;BME280;21899;42.662;23.316;2023-07-30T00:32:46;94243.38;;;20.98;69.96
35778;BME280;21899;42.662;23.316;2023-07-30T00:35:11;94253.22;;;21.04;69.46
35778;BME280;21899;42.662;23.316;2023-07-30T00:37:37;94255.19;;;21.04;68.73
35778;BME280;21899;42.662;23.316;2023-07-30T00:40:03;94254.38;;;20.94;68.18
35778;BME280;21899;42.662;23.316;2023-07-30T00:42:29;94242.16;;;20.90;67.93
35778;BME280;21899;42.662;23.316;2023-07-30T00:44:55;94254.56;;;20.91;68.13
35778;BME280;21899;42.662;23.316;2023-07-30T00:47:21;94256.19;;;20.88;68.07
35778;BME280;21899;42.662;23.316;2023-07-30T00:49:47;94253.47;;;20.88;68.31
35778;BME280;21899;42.662;23.316;2023-07-30T00:52:15;94255.44;;;20.88;68.51
35778;BME280;21899;42.662;23.316;2023-07-30T00:54:41;94259.38;;;20.87;69.20
35778;BME280;21899;42.662;23.316;2023-07-30T00:57:06;94254.84;;;20.84;69.44
35778;BME280;21899;42.662;23.316;2023-07-30T00:59:33;94248.06;;;20.79;71.39
35778;BME280;21899;42.662;23.316;2023-07-30T01:01:59;94249.69;;;20.67;74.48
35778;BME280;21899;42.662;23.316;2023-07-30T01:04:24;94255.28;;;20.64;75.82
35778;BME280;21899;42.662;23.316;2023-07-30T01:06:49;94244.25;;;20.58;76.22
35778;BME280;21899;42.662;23.316;2023-07-30T01:09:15;94247.88;;;20.55;76.06
35778;BME280;21899;42.662;23.316;2023-07-30T01:11:41;94267.34;;;20.54;77.16
35778;BME280;21899;42.662;23.316;2023-07-30T01:14:08;94259.34;;;20.50;77.36
35778;BME280;21899;42.662;23.316;2023-07-30T01:16:34;94258.09;;;20.42;77.70
35778;BME280;21899;42.662;23.316;2023-07-30T01:18:59;94253.59;;;20.48;77.48
35778;BME280;21899;42.662;23.316;2023-07-30T01:21:31;94262.97;;;20.56;77.60
35778;BME280;21899;42.662;23.316;2023-07-30T01:23:56;94257.97;;;20.55;77.68
35778;BME280;21899;42.662;23.316;2023-07-30T01:26:29;94257.81;;;20.49;78.17
35778;BME280;21899;42.662;23.316;2023-07-30T01:28:58;94257.03;;;20.40;78.93
35778;BME280;21899;42.662;23.316;2023-07-30T01:31:26;94257.47;;;20.38;79.20
35778;BME280;21899;42.662;23.316;2023-07-30T01:33:54;94257.75;;;20.31;79.54
35778;BME280;21899;42.662;23.316;2023-07-30T01:36:21;94259.88;;;20.36;79.36
35778;BME280;21899;42.662;23.316;2023-07-30T01:38:47;94240.56;;;20.34;79.00
35778;BME280;21899;42.662;23.316;2023-07-30T01:41:14;94255.66;;;20.35;79.14
35778;BME280;21899;42.662;23.316;2023-07-30T01:43:39;94253.13;;;20.41;78.88
35778;BME280;21899;42.662;23.316;2023-07-30T01:46:05;94253.56;;;20.39;78.92
35778;BME280;21899;42.662;23.316;2023-07-30T01:48:30;94262.66;;;20.45;78.16
35778;BME280;21899;42.662;23.316;2023-07-30T01:50:56;94258.09;;;20.42;78.04
35778;BME280;21899;42.662;23.316;2023-07-30T01:53:21;94253.72;;;20.36;78.27
35778;BME280;21899;42.662;23.316;2023-07-30T01:55:46;94264.28;;;20.43;77.97
35778;BME280;21899;42.662;23.316;2023-07-30T01:58:12;94256.56;;;20.32;78.05
35778;BME280;21899;42.662;23.316;2023-07-30T02:00:39;94266.84;;;20.37;78.42
35778;BME280;21899;42.662;23.316;2023-07-30T02:03:04;94260.47;;;20.22;79.12
35778;BME280;21899;42.662;23.316;2023-07-30T02:05:30;94269.31;;;20.14;79.69
35778;BME280;21899;42.662;23.316;2023-07-30T02:07:55;94255.84;;;20.01;80.20
35778;BME280;21899;42.662;23.316;2023-07-30T02:10:21;94261.75;;;20.09;79.74
35778;BME280;21899;42.662;23.316;2023-07-30T02:12:46;94268.41;;;20.08;79.51
35778;BME280;21899;42.662;23.316;2023-07-30T02:15:12;94265.03;;;20.04;79.48
35778;BME280;21899;42.662;23.316;2023-07-30T02:17:37;94256.00;;;20.07;78.97
35778;BME280;21899;42.662;23.316;2023-07-30T02:20:03;94269.13;;;20.08;78.40
35778;BME280;21899;42.662;23.316;2023-07-30T02:22:28;94273.38;;;20.09;77.86
35778;BME280;21899;42.662;23.316;2023-07-30T02:24:53;94272.63;;;20.09;77.38
35778;BME280;21899;42.662;23.316;2023-07-30T02:27:22;94269.56;;;20.07;77.03
35778;BME280;21899;42.662;23.316;2023-07-30T02:29:47;94271.97;;;20.05;77.19
35778;BME280;21899;42.662;23.316;2023-07-30T02:32:13;94280.91;;;20.05;77.52
35778;BME280;21899;42.662;23.316;2023-07-30T02:34:38;94274.84;;;20.01;77.24
35778;BME280;21899;42.662;23.316;2023-07-30T02:37:04;94264.84;;;19.98;77.41
35778;BME280;21899;42.662;23.316;2023-07-30T02:39:29;94268.94;;;19.94;77.10
35778;BME280;21899;42.662;23.316;2023-07-30T02:41:54;94269.06;;;19.90;77.69
35778;BME280;21899;42.662;23.316;2023-07-30T02:44:20;94276.31;;;19.93;77.99
35778;BME280;21899;42.662;23.316;2023-07-30T02:46:45;94277.97;;;19.91;77.66
35778;BME280;21899;42.662;23.316;2023-07-30T02:49:11;94273.88;;;19.86;78.40
35778;BME280;21899;42.662;23.316;2023-07-30T02:51:36;94275.84;;;19.86;78.05
35778;BME280;21899;42.662;23.316;2023-07-30T02:54:04;94267.69;;;19.86;78.32
35778;BME280;21899;42.662;23.316;2023-07-30T02:56:30;94279.00;;;19.84;78.49
35778;BME280;21899;42.662;23.316;2023-07-30T02:58:57;94274.13;;;19.79;78.07
35778;BME280;21899;42.662;23.316;2023-07-30T03:01:23;94269.16;;;19.78;78.04
35778;BME280;21899;42.662;23.316;2023-07-30T03:03:48;94275.94;;;19.73;78.56
35778;BME280;21899;42.662;23.316;2023-07-30T03:06:14;94292.16;;;19.64;79.09
35778;BME280;21899;42.662;23.316;2023-07-30T03:08:42;94288.44;;;19.71;78.75
35778;BME280;21899;42.662;23.316;2023-07-30T03:11:07;94284.66;;;19.68;79.06
35778;BME280;21899;42.662;23.316;2023-07-30T03:13:32;94280.41;;;19.67;79.00
35778;BME280;21899;42.662;23.316;2023-07-30T03:15:58;94284.69;;;19.77;78.92
35778;BME280;21899;42.662;23.316;2023-07-30T03:18:23;94284.38;;;19.75;78.98
35778;BME280;21899;42.662;23.316;2023-07-30T03:20:48;94288.09;;;19.69;80.08
35778;BME280;21899;42.662;23.316;2023-07-30T03:23:14;94284.13;;;19.61;80.52
35778;BME280;21899;42.662;23.316;2023-07-30T03:25:39;94280.03;;;19.56;81.19
35778;BME280;21899;42.662;23.316;2023-07-30T03:28:05;94268.56;;;19.52;81.52
35778;BME280;21899;42.662;23.316;2023-07-30T03:30:30;94278.53;;;19.55;82.58
35778;BME280;21899;42.662;23.316;2023-07-30T03:32:55;94288.88;;;19.48;83.85
35778;BME280;21899;42.662;23.316;2023-07-30T03:35:21;94276.09;;;19.48;83.66
35778;BME280;21899;42.662;23.316;2023-07-30T03:37:47;94281.84;;;19.50;83.60
35778;BME280;21899;42.662;23.316;2023-07-30T03:40:12;94284.09;;;19.52;83.18
35778;BME280;21899;42.662;23.316;2023-07-30T03:42:37;94287.38;;;19.47;82.93
35778;BME280;21899;42.662;23.316;2023-07-30T03:45:04;94285.94;;;19.55;82.44
35778;BME280;21899;42.662;23.316;2023-07-30T03:47:29;94277.09;;;19.63;82.08
35778;BME280;21899;42.662;23.316;2023-07-30T03:49:54;94275.63;;;19.71;81.93
35778;BME280;21899;42.662;23.316;2023-07-30T03:52:20;94290.56;;;19.76;81.88
35778;BME280;21899;42.662;23.316;2023-07-30T03:54:45;94297.50;;;19.77;81.49
35778;BME280;21899;42.662;23.316;2023-07-30T03:57:10;94290.13;;;19.77;81.60
35778;BME280;21899;42.662;23.316;2023-07-30T03:59:36;94301.38;;;19.88;81.84
35778;BME280;21899;42.662;23.316;2023-07-30T04:02:01;94295.63;;;19.95;81.25
35778;BME280;21899;42.662;23.316;2023-07-30T04:04:27;94304.88;;;19.98;81.60
35778;BME280;21899;42.662;23.316;2023-07-30T04:06:53;94302.59;;;19.96;81.29
35778;BME280;21899;42.662;23.316;2023-07-30T04:09:18;94301.97;;;19.92;80.85
35778;BME280;21899;42.662;23.316;2023-07-30T04:11:44;94296.53;;;19.92;80.78
35778;BME280;21899;42.662;23.316;2023-07-30T04:14:09;94295.50;;;19.99;80.18
35778;BME280;21899;42.662;23.316;2023-07-30T04:16:35;94307.25;;;20.17;78.82
35778;BME280;21899;42.662;23.316;2023-07-30T04:19:00;94298.69;;;20.28;78.10
35778;BME280;21899;42.662;23.316;2023-07-30T04:21:25;94304.00;;;20.40;76.24
35778;BME280;21899;42.662;23.316;2023-07-30T04:23:51;94298.75;;;20.46;74.57
35778;BME280;21899;42.662;23.316;2023-07-30T04:26:16;94308.00;;;20.57;73.40
35778;BME280;21899;42.662;23.316;2023-07-30T04:28:42;94291.06;;;20.53;73.42
35778;BME280;21899;42.662;23.316;2023-07-30T04:31:07;94304.38;;;20.69;73.34
35778;BME280;21899;42.662;23.316;2023-07-30T04:33:33;94304.56;;;20.75;72.64
35778;BME280;21899;42.662;23.316;2023-07-30T04:35:58;94305.31;;;20.85;71.55
35778;BME280;21899;42.662;23.316;2023-07-30T04:38:24;94306.75;;;21.07;71.42
35778;BME280;21899;42.662;23.316;2023-07-30T04:40:49;94307.19;;;21.15;71.27
35778;BME280;21899;42.662;23.316;2023-07-30T04:43:15;94314.63;;;21.23;70.74
35778;BME280;21899;42.662;23.316;2023-07-30T04:45:42;94305.06;;;21.28;70.70
35778;BME280;21899;42.662;23.316;2023-07-30T04:48:07;94300.34;;;21.55;70.29
35778;BME280;21899;42.662;23.316;2023-07-30T04:50:33;94308.56;;;22.15;67.89
35778;BME280;21899;42.662;23.316;2023-07-30T04:52:58;94311.16;;;22.60;64.62
35778;BME280;21899;42.662;23.316;2023-07-30T04:55:24;94319.47;;;23.13;61.96
35778;BME280;21899;42.662;23.316;2023-07-30T04:57:49;94312.94;;;23.87;58.38
35778;BME280;21899;42.662;23.316;2023-07-30T05:00:14;94321.56;;;24.09;55.88
35778;BME280;21899;42.662;23.316;2023-07-30T05:02:40;94312.88;;;24.60;53.97
35778;BME280;21899;42.662;23.316;2023-07-30T05:05:05;94318.28;;;25.43;51.10
35778;BME280;21899;42.662;23.316;2023-07-30T05:07:31;94312.41;;;26.02;49.45
35778;BME280;21899;42.662;23.316;2023-07-30T05:09:57;94310.81;;;26.15;48.70
35778;BME280;21899;42.662;23.316;2023-07-30T05:12:22;94317.03;;;26.72;47.19
35778;BME280;21899;42.662;23.316;2023-07-30T05:14:47;94317.47;;;26.65;46.36
35778;BME280;21899;42.662;23.316;2023-07-30T05:17:13;94318.66;;;26.28;45.87
35778;BME280;21899;42.662;23.316;2023-07-30T05:19:38;94314.38;;;26.58;46.10
35778;BME280;21899;42.662;23.316;2023-07-30T05:22:04;94316.25;;;26.72;44.62
35778;BME280;21899;42.662;23.316;2023-07-30T05:24:31;94325.28;;;26.47;45.30
35778;BME280;21899;42.662;23.316;2023-07-30T05:26:56;94318.16;;;26.60;45.17
35778;BME280;21899;42.662;23.316;2023-07-30T05:29:21;94316.31;;;26.83;44.42
35778;BME280;21899;42.662;23.316;2023-07-30T05:31:47;94315.53;;;26.77;43.62
35778;BME280;21899;42.662;23.316;2023-07-30T05:34:12;94320.00;;;26.69;44.82
35778;BME280;21899;42.662;23.316;2023-07-30T05:36:38;94316.38;;;26.94;43.65
35778;BME280;21899;42.662;23.316;2023-07-30T05:39:03;94315.38;;;26.91;43.14
35778;BME280;21899;42.662;23.316;2023-07-30T05:41:28;94322.31;;;26.81;43.55
35778;BME280;21899;42.662;23.316;2023-07-30T05:43:54;94324.88;;;26.96;43.33
35778;BME280;21899;42.662;23.316;2023-07-30T05:46:19;94328.50;;;26.45;44.00
35778;BME280;21899;42.662;23.316;2023-07-30T05:48:44;94321.00;;;26.71;44.25
35778;BME280;21899;42.662;23.316;2023-07-30T05:51:10;94330.41;;;27.02;44.21
35778;BME280;21899;42.662;23.316;2023-07-30T05:53:35;94328.19;;;27.53;42.69
35778;BME280;21899;42.662;23.316;2023-07-30T05:56:01;94326.38;;;27.39;42.65
35778;BME280;21899;42.662;23.316;2023-07-30T05:58:26;94328.03;;;27.20;42.14
35778;BME280;21899;42.662;23.316;2023-07-30T06:00:51;94330.16;;;27.42;42.02
35778;BME280;21899;42.662;23.316;2023-07-30T06:03:18;94325.91;;;26.99;42.98
35778;BME280;21899;42.662;23.316;2023-07-30T06:05:44;94339.19;;;27.11;42.51
35778;BME280;21899;42.662;23.316;2023-07-30T06:08:09;94333.34;;;26.92;42.84
35778;BME280;21899;42.662;23.316;2023-07-30T06:10:36;94324.94;;;26.34;43.98
35778;BME280;21899;42.662;23.316;2023-07-30T06:13:02;94329.63;;;26.28;44.03
35778;BME280;21899;42.662;23.316;2023-07-30T06:15:27;94337.28;;;25.98;45.33
35778;BME280;21899;42.662;23.316;2023-07-30T06:17:53;94333.69;;;25.87;45.83
35778;BME280;21899;42.662;23.316;2023-07-30T06:20:18;94329.84;;;25.73;46.26
35778;BME280;21899;42.662;23.316;2023-07-30T06:22:43;94330.56;;;25.73;46.26
35778;BME280;21899;42.662;23.316;2023-07-30T06:25:09;94328.50;;;25.68;46.79
35778;BME280;21899;42.662;23.316;2023-07-30T06:27:34;94325.00;;;25.88;46.34
35778;BME280;21899;42.662;23.316;2023-07-30T06:30:00;94335.66;;;26.06;46.42
35778;BME280;21899;42.662;23.316;2023-07-30T06:32:25;94324.38;;;25.79;45.60
35778;BME280;21899;42.662;23.316;2023-07-30T06:34:51;94332.50;;;25.67;45.93
35778;BME280;21899;42.662;23.316;2023-07-30T06:37:16;94329.19;;;25.84;46.65
35778;BME280;21899;42.662;23.316;2023-07-30T06:39:41;94314.97;;;25.59;48.02
35778;BME280;21899;42.662;23.316;2023-07-30T06:42:07;94312.81;;;25.43;47.24
35778;BME280;21899;42.662;23.316;2023-07-30T06:44:33;94320.56;;;25.30;47.42
35778;BME280;21899;42.662;23.316;2023-07-30T06:46:59;94308.31;;;25.26;47.37
35778;BME280;21899;42.662;23.316;2023-07-30T06:49:25;94304.69;;;25.34;46.93
35778;BME280;21899;42.662;23.316;2023-07-30T06:51:50;94302.72;;;25.55;46.80
35778;BME280;21899;42.662;23.316;2023-07-30T06:54:15;94308.16;;;25.75;47.49
35778;BME280;21899;42.662;23.316;2023-07-30T06:56:41;94299.19;;;25.75;46.44
35778;BME280;21899;42.662;23.316;2023-07-30T06:59:06;94299.34;;;25.91;46.01
35778;BME280;21899;42.662;23.316;2023-07-30T07:01:31;94296.25;;;25.84;47.13
35778;BME280;21899;42.662;23.316;2023-07-30T07:03:57;94309.38;;;25.74;46.99
35778;BME280;21899;42.662;23.316;2023-07-30T07:06:22;94293.25;;;25.56;47.38
35778;BME280;21899;42.662;23.316;2023-07-30T07:08:47;94293.84;;;25.65;47.73
35778;BME280;21899;42.662;23.316;2023-07-30T07:11:13;94288.22;;;25.75;46.86
35778;BME280;21899;42.662;23.316;2023-07-30T07:13:38;94285.53;;;26.06;47.32
35778;BME280;21899;42.662;23.316;2023-07-30T07:16:04;94289.03;;;26.06;46.78
35778;BME280;21899;42.662;23.316;2023-07-30T07:18:29;94283.16;;;26.19;46.46
35778;BME280;21899;42.662;23.316;2023-07-30T07:20:54;94282.78;;;26.37;46.41
35778;BME280;21899;42.662;23.316;2023-07-30T07:23:20;94278.34;;;26.45;44.92
35778;BME280;21899;42.662;23.316;2023-07-30T07:25:45;94268.00;;;26.29;45.43
35778;BME280;21899;42.662;23.316;2023-07-30T07:28:11;94273.88;;;26.47;45.05
35778;BME280;21899;42.662;23.316;2023-07-30T07:30:36;94267.59;;;26.78;44.91
35778;BME280;21899;42.662;23.316;2023-07-30T07:33:02;94278.13;;;26.85;44.36
35778;BME280;21899;42.662;23.316;2023-07-30T07:35:27;94259.03;;;26.65;42.73
35778;BME280;21899;42.662;23.316;2023-07-30T07:37:53;94266.84;;;26.72;44.41
35778;BME280;21899;42.662;23.316;2023-07-30T07:40:18;94272.88;;;26.81;43.17
35778;BME280;21899;42.662;23.316;2023-07-30T07:42:44;94264.34;;;26.74;43.44
35778;BME280;21899;42.662;23.316;2023-07-30T07:45:11;94256.47;;;26.56;42.77
35778;BME280;21899;42.662;23.316;2023-07-30T07:47:36;94264.09;;;26.72;43.32
35778;BME280;21899;42.662;23.316;2023-07-30T07:50:01;94262.69;;;26.93;42.45
35778;BME280;21899;42.662;23.316;2023-07-30T07:52:27;94262.28;;;27.11;40.90
35778;BME280;21899;42.662;23.316;2023-07-30T07:54:52;94267.06;;;27.27;41.31
35778;BME280;21899;42.662;23.316;2023-07-30T07:57:18;94261.88;;;27.29;39.71
35778;BME280;21899;42.662;23.316;2023-07-30T07:59:43;94269.66;;;27.47;39.39
35778;BME280;21899;42.662;23.316;2023-07-30T08:02:11;94265.19;;;27.50;39.39
35778;BME280;21899;42.662;23.316;2023-07-30T08:04:37;94257.41;;;27.43;38.54
35778;BME280;21899;42.662;23.316;2023-07-30T08:07:02;94247.63;;;27.31;38.79
35778;BME280;21899;42.662;23.316;2023-07-30T08:09:29;94257.94;;;27.52;39.05
35778;BME280;21899;42.662;23.316;2023-07-30T08:11:54;94256.72;;;27.75;38.16
35778;BME280;21899;42.662;23.316;2023-07-30T08:14:20;94252.03;;;27.92;37.79
35778;BME280;21899;42.662;23.316;2023-07-30T08:16:45;94247.28;;;27.93;37.08
35778;BME280;21899;42.662;23.316;2023-07-30T08:19:10;94251.78;;;28.07;36.59
35778;BME280;21899;42.662;23.316;2023-07-30T08:21:37;94249.81;;;28.13;37.64
35778;BME280;21899;42.662;23.316;2023-07-30T08:24:02;94247.53;;;28.34;37.00
35778;BME280;21899;42.662;23.316;2023-07-30T08:26:28;94256.03;;;28.58;36.43
35778;BME280;21899;42.662;23.316;2023-07-30T08:28:53;94245.47;;;28.78;36.34
35778;BME280;21899;42.662;23.316;2023-07-30T08:31:18;94236.66;;;28.91;37.10
35778;BME280;21899;42.662;23.316;2023-07-30T08:33:44;94230.69;;;28.92;36.41
35778;BME280;21899;42.662;23.316;2023-07-30T08:36:09;94234.13;;;29.04;36.83
35778;BME280;21899;42.662;23.316;2023-07-30T08:38:35;94233.34;;;29.14;36.24
35778;BME280;21899;42.662;23.316;2023-07-30T08:41:00;94225.59;;;29.13;36.17
35778;BME280;21899;42.662;23.316;2023-07-30T08:43:26;94226.31;;;29.19;35.47
35778;BME280;21899;42.662;23.316;2023-07-30T08:45:52;94213.56;;;29.16;35.12
35778;BME280;21899;42.662;23.316;2023-07-30T08:48:17;94220.81;;;29.19;35.78
35778;BME280;21899;42.662;23.316;2023-07-30T08:50:43;94221.84;;;29.05;36.18
35778;BME280;21899;42.662;23.316;2023-07-30T08:53:10;94214.56;;;29.13;35.94
35778;BME280;21899;42.662;23.316;2023-07-30T08:55:36;94216.59;;;29.07;35.79
35778;BME280;21899;42.662;23.316;2023-07-30T08:58:04;94213.78;;;29.18;35.56
35778;BME280;21899;42.662;23.316;2023-07-30T09:00:34;94222.19;;;29.42;35.64
35778;BME280;21899;42.662;23.316;2023-07-30T09:03:00;94213.09;;;29.58;35.27
35778;BME280;21899;42.662;23.316;2023-07-30T09:05:27;94208.78;;;29.68;33.47
35778;BME280;21899;42.662;23.316;2023-07-30T09:07:56;94211.66;;;29.87;34.19
35778;BME280;21899;42.662;23.316;2023-07-30T09:10:22;94208.03;;;30.03;33.82
35778;BME280;21899;42.662;23.316;2023-07-30T09:12:54;94203.16;;;30.14;34.48
35778;BME280;21899;42.662;23.316;2023-07-30T09:15:29;94208.59;;;30.25;34.74
35778;BME280;21899;42.662;23.316;2023-07-30T09:17:56;94206.00;;;30.33;33.68
35778;BME280;21899;42.662;23.316;2023-07-30T09:20:21;94215.28;;;30.35;29.40
35778;BME280;21899;42.662;23.316;2023-07-30T09:22:47;94209.66;;;30.22;29.86
35778;BME280;21899;42.662;23.316;2023-07-30T09:25:14;94209.22;;;30.42;30.64
35778;BME280;21899;42.662;23.316;2023-07-30T09:27:42;94208.16;;;30.70;29.63
35778;BME280;21899;42.662;23.316;2023-07-30T09:30:07;94198.28;;;30.80;28.82
35778;BME280;21899;42.662;23.316;2023-07-30T09:32:34;94192.06;;;30.74;31.26
35778;BME280;21899;42.662;23.316;2023-07-30T09:35:10;94191.72;;;30.58;31.64
35778;BME280;21899;42.662;23.316;2023-07-30T09:37:38;94190.56;;;30.48;31.24
35778;BME280;21899;42.662;23.316;2023-07-30T09:40:09;94184.97;;;30.30;31.02
35778;BME280;21899;42.662;23.316;2023-07-30T09:42:36;94183.53;;;30.23;31.21
35778;BME280;21899;42.662;23.316;2023-07-30T09:45:05;94187.84;;;30.13;31.47
35778;BME280;21899;42.662;23.316;2023-07-30T09:47:32;94179.38;;;30.06;31.28
35778;BME280;21899;42.662;23.316;2023-07-30T09:49:59;94173.59;;;30.09;30.50
35778;BME280;21899;42.662;23.316;2023-07-30T09:52:25;94181.00;;;30.25;31.02
35778;BME280;21899;42.662;23.316;2023-07-30T09:54:52;94178.31;;;30.44;30.87
35778;BME280;21899;42.662;23.316;2023-07-30T09:57:17;94174.34;;;30.63;31.15
35778;BME280;21899;42.662;23.316;2023-07-30T09:59:43;94179.69;;;30.80;30.15
35778;BME280;21899;42.662;23.316;2023-07-30T10:02:10;94176.00;;;30.72;29.70
35778;BME280;21899;42.662;23.316;2023-07-30T10:04:39;94162.13;;;30.78;30.29
35778;BME280;21899;42.662;23.316;2023-07-30T10:07:10;94165.91;;;30.75;29.93
35778;BME280;21899;42.662;23.316;2023-07-30T10:09:40;94160.41;;;30.50;30.27
35778;BME280;21899;42.662;23.316;2023-07-30T10:12:18;94161.38;;;30.53;29.42
35778;BME280;21899;42.662;23.316;2023-07-30T10:14:45;94152.88;;;30.51;29.74
35778;BME280;21899;42.662;23.316;2023-07-30T10:17:12;94150.50;;;30.60;30.44
35778;BME280;21899;42.662;23.316;2023-07-30T10:19:38;94146.75;;;30.58;30.17
35778;BME280;21899;42.662;23.316;2023-07-30T10:24:41;94148.03;;;30.57;30.84
35778;BME280;21899;42.662;23.316;2023-07-30T10:27:09;94137.94;;;30.59;30.31
35778;BME280;21899;42.662;23.316;2023-07-30T10:29:40;94144.50;;;30.56;30.24
35778;BME280;21899;42.662;23.316;2023-07-30T10:32:06;94136.75;;;30.55;30.00
35778;BME280;21899;42.662;23.316;2023-07-30T10:34:44;94142.66;;;30.64;29.81
35778;BME280;21899;42.662;23.316;2023-07-30T10:37:10;94125.78;;;30.68;29.65
35778;BME280;21899;42.662;23.316;2023-07-30T10:39:35;94132.28;;;30.95;29.61
35778;BME280;21899;42.662;23.316;2023-07-30T10:42:01;94124.88;;;31.03;29.16
35778;BME280;21899;42.662;23.316;2023-07-30T10:44:27;94127.00;;;31.15;29.48
35778;BME280;21899;42.662;23.316;2023-07-30T10:46:54;94121.06;;;31.24;29.14
35778;BME280;21899;42.662;23.316;2023-07-30T10:49:20;94121.59;;;31.23;29.16
35778;BME280;21899;42.662;23.316;2023-07-30T10:51:45;94117.22;;;31.33;29.10
35778;BME280;21899;42.662;23.316;2023-07-30T10:54:11;94111.91;;;31.35;28.93
35778;BME280;21899;42.662;23.316;2023-07-30T10:56:37;94105.38;;;31.51;29.09
35778;BME280;21899;42.662;23.316;2023-07-30T10:59:06;94106.16;;;31.64;28.53
35778;BME280;21899;42.662;23.316;2023-07-30T11:01:40;94098.69;;;31.59;28.57
35778;BME280;21899;42.662;23.316;2023-07-30T11:04:17;94101.16;;;31.63;28.35
35778;BME280;21899;42.662;23.316;2023-07-30T11:06:47;94092.25;;;31.70;28.08
35778;BME280;21899;42.662;23.316;2023-07-30T11:09:21;94090.75;;;31.69;28.26
35778;BME280;21899;42.662;23.316;2023-07-30T11:11:47;94092.72;;;31.55;28.60
35778;BME280;21899;42.662;23.316;2023-07-30T11:14:20;94082.53;;;31.32;28.35
35778;BME280;21899;42.662;23.316;2023-07-30T11:16:49;94080.34;;;31.25;28.44
35778;BME280;21899;42.662;23.316;2023-07-30T11:19:16;94082.06;;;31.28;28.92
35778;BME280;21899;42.662;23.316;2023-07-30T11:21:47;94071.69;;;31.34;28.90
35778;BME280;21899;42.662;23.316;2023-07-30T11:24:13;94063.00;;;31.24;28.19
35778;BME280;21899;42.662;23.316;2023-07-30T11:26:39;94065.75;;;31.43;28.23
35778;BME280;21899;42.662;23.316;2023-07-30T11:29:17;94062.09;;;31.53;29.00
35778;BME280;21899;42.662;23.316;2023-07-30T11:31:44;94060.88;;;31.49;28.13
35778;BME280;21899;42.662;23.316;2023-07-30T11:34:10;94064.97;;;31.61;27.80
35778;BME280;21899;42.662;23.316;2023-07-30T11:36:36;94054.53;;;31.67;28.35
35778;BME280;21899;42.662;23.316;2023-07-30T11:39:02;94053.53;;;31.83;27.46
35778;BME280;21899;42.662;23.316;2023-07-30T11:41:27;94050.94;;;31.72;27.54
35778;BME280;21899;42.662;23.316;2023-07-30T11:43:54;94039.69;;;31.83;27.53
35778;BME280;21899;42.662;23.316;2023-07-30T11:46:19;94047.59;;;31.92;26.98
35778;BME280;21899;42.662;23.316;2023-07-30T11:48:49;94030.94;;;31.66;27.88
35778;BME280;21899;42.662;23.316;2023-07-30T11:51:28;94025.38;;;31.66;27.77
35778;BME280;21899;42.662;23.316;2023-07-30T11:54:00;94039.44;;;31.68;28.15
35778;BME280;21899;42.662;23.316;2023-07-30T11:56:28;94036.16;;;31.69;28.24
35778;BME280;21899;42.662;23.316;2023-07-30T11:59:12;94018.56;;;31.67;27.71
35778;BME280;21899;42.662;23.316;2023-07-30T12:01:37;94012.69;;;31.89;28.27
35778;BME280;21899;42.662;23.316;2023-07-30T12:04:04;94004.28;;;32.08;27.47
35778;BME280;21899;42.662;23.316;2023-07-30T12:09:16;93997.25;;;32.46;26.38
35778;BME280;21899;42.662;23.316;2023-07-30T12:14:22;94009.69;;;32.52;26.04
35778;BME280;21899;42.662;23.316;2023-07-30T12:16:48;94000.97;;;32.48;25.95
35778;BME280;21899;42.662;23.316;2023-07-30T12:19:13;93993.69;;;32.58;26.40
35778;BME280;21899;42.662;23.316;2023-07-30T12:21:39;93984.63;;;32.58;25.88
35778;BME280;21899;42.662;23.316;2023-07-30T12:24:04;93975.59;;;32.57;26.47
35778;BME280;21899;42.662;23.316;2023-07-30T12:26:30;93982.84;;;32.34;26.33
35778;BME280;21899;42.662;23.316;2023-07-30T12:28:56;93974.31;;;32.32;26.54
35778;BME280;21899;42.662;23.316;2023-07-30T12:31:21;93966.22;;;32.47;26.15
35778;BME280;21899;42.662;23.316;2023-07-30T12:33:46;93975.81;;;32.59;26.28
35778;BME280;21899;42.662;23.316;2023-07-30T12:36:12;93978.19;;;32.76;26.07
35778;BME280;21899;42.662;23.316;2023-07-30T12:38:37;93966.22;;;32.81;26.24
35778;BME280;21899;42.662;23.316;2023-07-30T12:41:02;93969.72;;;32.94;26.24
35778;BME280;21899;42.662;23.316;2023-07-30T12:43:28;93973.06;;;33.14;25.86
35778;BME280;21899;42.662;23.316;2023-07-30T12:48:37;93962.44;;;33.25;25.20
35778;BME280;21899;42.662;23.316;2023-07-30T12:51:03;93959.34;;;33.49;25.03
35778;BME280;21899;42.662;23.316;2023-07-30T12:53:28;93953.44;;;33.53;24.72
35778;BME280;21899;42.662;23.316;2023-07-30T12:55:54;93944.91;;;33.51;25.05